首页
METAR-TAF:

METAR-TAF

机场 :

DuBois / Falls Creek, 宾夕法尼亚州, 美国

纬度: 41-11N, 经度: 078-54W, 海拔: 555米

当前天气观测

该预报发布于24分钟前的19:53 UTC
风速9节,风向西转西北,有时为18节阵风,在西北转西北之间变化
温度 1°C
湿度 47%
气压 1026 hPa
能見度: 16.1公里
天空无云

METAR: KDUJ 191953Z AUTO 30009G18KT 270V330 10SM CLR 01/M09 A3029 RMK AO2 SLP277 T00111094

时间: 15:17 (20:17 UTC)

预报

该预报发布于2小时和37分钟前的17:40 UTC
预报有效从19日的 18点(UTC)到 20日的 18点(UTC)
风速15节,风向西北,有时为20节阵风
能見度: 10公里
天空无云
从 19日的 2100点(UTC)
风速5节,风向西北
能見度: 10公里
散云层高于2500英尺

TAF: KDUJ 191740Z 1918/2018 32015G20KT P6SM SKC FM192100 32005KT P6SM SCT025

超过4000个机场的气象观测和天气预报(METAR&TAF报告)。

可查询的气象台以黄色和红色小点在地图上表示。

将鼠标移到小点上方,可查看气象台名称。

然后点击查看天气观测和预报。

如需切换地图:点击带黑十字的绿色按钮放大地图;点击带横线的绿色按钮缩小地图;或者点击绿色箭头查看邻近地区的地图。


METAR-TAF: